createdAt,value
2023-05-19T00:00:03.447Z,84.69
2023-05-19T00:01:03.467Z,85.82
2023-05-19T00:02:03.083Z,86.58
2023-05-19T00:03:03.077Z,87.30
2023-05-19T00:04:03.115Z,88.17
2023-05-19T00:05:03.090Z,88.27
2023-05-19T00:06:02.751Z,86.99
2023-05-19T00:07:02.959Z,86.38
2023-05-19T00:08:03.079Z,85.66
2023-05-19T00:09:02.763Z,85.66
2023-05-19T00:10:02.787Z,85.46
2023-05-19T00:11:02.828Z,85.35
2023-05-19T00:12:02.799Z,85.35
2023-05-19T00:13:02.715Z,85.35
2023-05-19T00:14:02.562Z,85.46
2023-05-19T00:15:02.949Z,85.25
2023-05-19T00:16:02.858Z,86.32
2023-05-19T00:17:02.997Z,86.83
2023-05-19T00:18:03.024Z,86.00
2023-05-19T00:19:03.089Z,86.52
2023-05-19T00:20:02.725Z,87.07
2023-05-19T00:21:02.669Z,86.62
2023-05-19T00:22:02.839Z,86.62
2023-05-19T00:23:02.630Z,86.42
2023-05-19T00:24:02.603Z,86.62
2023-05-19T00:25:02.917Z,86.32
2023-05-19T00:26:03.457Z,85.49
2023-05-19T00:27:03.490Z,84.88
2023-05-19T00:28:03.065Z,84.05
2023-05-19T00:29:03.441Z,83.23
2023-05-19T00:30:02.794Z,82.82
2023-05-19T00:31:02.534Z,82.41
2023-05-19T00:32:02.719Z,84.26
2023-05-19T00:33:02.694Z,84.36
2023-05-19T00:34:02.605Z,84.26
2023-05-19T00:35:02.965Z,83.75
2023-05-19T00:36:03.177Z,84.67
2023-05-19T00:37:03.159Z,83.75
2023-05-19T00:38:03.396Z,84.05
2023-05-19T00:39:03.080Z,82.51
2023-05-19T00:40:03.624Z,81.59
2023-05-19T00:41:03.017Z,81.07
2023-05-19T00:42:03.390Z,81.48
2023-05-19T00:43:03.252Z,81.28
2023-05-19T00:44:03.119Z,81.38
2023-05-19T00:45:02.794Z,81.28
2023-05-19T00:46:02.686Z,81.90
2023-05-19T00:47:02.803Z,81.69
2023-05-19T00:48:02.740Z,81.73
2023-05-19T00:49:02.563Z,81.32
2023-05-19T00:50:03.060Z,82.45
2023-05-19T00:51:02.997Z,82.24
2023-05-19T00:52:02.889Z,84.30
2023-05-19T00:53:03.216Z,84.61
2023-05-19T00:54:03.179Z,84.95
2023-05-19T00:55:02.773Z,84.75
2023-05-19T00:56:02.612Z,86.40
2023-05-19T00:57:02.547Z,86.43
2023-05-19T00:58:02.480Z,85.41
2023-05-19T00:59:02.889Z,84.75
2023-05-19T01:00:02.692Z,84.13
2023-05-19T01:01:02.792Z,84.75
2023-05-19T01:02:03.193Z,85.88
2023-05-19T01:03:03.072Z,86.64
2023-05-19T01:04:02.820Z,86.33
2023-05-19T01:05:02.597Z,86.95
2023-05-19T01:06:02.365Z,86.50
2023-05-19T01:07:02.250Z,85.78
2023-05-19T01:08:02.225Z,86.08
2023-05-19T01:09:02.307Z,85.92
2023-05-19T01:10:02.969Z,85.36
2023-05-19T01:11:02.544Z,84.64
2023-05-19T01:12:02.428Z,84.64
2023-05-19T01:13:02.974Z,84.44
2023-05-19T01:14:02.495Z,83.83
2023-05-19T01:15:02.376Z,83.72
2023-05-19T01:16:02.465Z,85.16
2023-05-19T01:17:02.309Z,85.98
2023-05-19T01:18:01.843Z,86.29
2023-05-19T01:19:02.095Z,86.64
2023-05-19T01:20:02.614Z,87.15
2023-05-19T01:21:02.166Z,88.84
2023-05-19T01:22:02.604Z,90.08
2023-05-19T01:23:02.454Z,91.05
2023-05-19T01:24:02.807Z,90.84
2023-05-19T01:25:02.161Z,91.46
2023-05-19T01:26:01.581Z,91.25
2023-05-19T01:27:02.134Z,90.94
2023-05-19T01:28:01.554Z,90.33
2023-05-19T01:29:01.663Z,90.94
2023-05-19T01:30:01.994Z,90.43
2023-05-19T01:31:01.912Z,89.40
2023-05-19T01:32:02.243Z,88.26
2023-05-19T01:33:02.060Z,87.60
2023-05-19T01:34:01.552Z,86.99
2023-05-19T01:35:02.469Z,86.58
2023-05-19T01:36:02.323Z,85.55
2023-05-19T01:37:02.125Z,84.83
2023-05-19T01:38:02.347Z,84.00
2023-05-19T01:39:02.516Z,84.83
2023-05-19T01:40:01.985Z,85.34
2023-05-19T01:41:01.583Z,86.16
2023-05-19T01:42:02.024Z,85.65
2023-05-19T01:43:01.467Z,85.34
2023-05-19T01:44:02.030Z,85.89
2023-05-19T01:45:01.886Z,85.89
2023-05-19T01:46:01.882Z,85.28
2023-05-19T01:47:02.427Z,86.82
2023-05-19T01:48:02.165Z,85.38
2023-05-19T01:49:02.275Z,85.65
2023-05-19T01:50:02.125Z,86.58
2023-05-19T01:51:02.670Z,86.47
2023-05-19T01:52:02.240Z,85.55
2023-05-19T01:53:02.121Z,87.30
2023-05-19T01:54:02.578Z,85.44
2023-05-19T01:55:01.771Z,84.62
2023-05-19T01:56:01.650Z,84.31
2023-05-19T01:57:02.077Z,85.07
2023-05-19T01:58:01.974Z,84.97
2023-05-19T01:59:01.699Z,84.66
2023-05-19T02:00:02.693Z,85.69
2023-05-19T02:01:02.382Z,87.24
2023-05-19T02:02:02.363Z,87.48
2023-05-19T02:03:02.295Z,86.87
2023-05-19T02:04:02.282Z,86.66
2023-05-19T02:05:02.368Z,86.76
2023-05-19T02:06:02.536Z,86.97
2023-05-19T02:07:02.359Z,87.17
2023-05-19T02:08:02.394Z,88.20
2023-05-19T02:09:02.248Z,88.10
2023-05-19T02:10:02.341Z,87.17
2023-05-19T02:11:02.924Z,86.97
2023-05-19T02:12:02.404Z,87.38
2023-05-19T02:13:02.340Z,87.32
2023-05-19T02:14:02.925Z,87.32
2023-05-19T02:15:03.068Z,87.73
2023-05-19T02:16:02.658Z,87.21
2023-05-19T02:17:02.727Z,86.80
2023-05-19T02:18:02.618Z,86.18
2023-05-19T02:19:02.553Z,86.29
2023-05-19T02:20:02.354Z,85.57
2023-05-19T02:21:02.205Z,85.15
2023-05-19T02:22:02.705Z,84.53
2023-05-19T02:23:02.229Z,85.25
2023-05-19T02:24:02.215Z,85.77
2023-05-19T02:25:01.869Z,86.39
2023-05-19T02:26:02.251Z,87.52
2023-05-19T02:27:01.712Z,87.98
2023-05-19T02:28:02.121Z,87.35
2023-05-19T02:29:01.993Z,87.26
2023-05-19T02:30:01.828Z,86.63
2023-05-19T02:31:02.018Z,86.43
2023-05-19T02:32:02.346Z,85.39
2023-05-19T02:33:01.808Z,84.88
2023-05-19T02:34:02.194Z,84.47
2023-05-19T02:35:02.374Z,84.16
2023-05-19T02:36:02.940Z,84.88
2023-05-19T02:37:02.736Z,86.32
2023-05-19T02:38:02.410Z,88.32
2023-05-19T02:39:02.314Z,88.64
2023-05-19T02:40:01.871Z,89.56
2023-05-19T02:41:02.320Z,89.98
2023-05-19T02:42:01.820Z,90.43
2023-05-19T02:43:01.907Z,90.74
2023-05-19T02:44:02.321Z,90.95
2023-05-19T02:45:01.984Z,91.46
2023-05-19T02:46:01.799Z,91.40
2023-05-19T02:47:01.745Z,92.23
2023-05-19T02:48:02.357Z,92.33
2023-05-19T02:49:02.077Z,92.85
2023-05-19T02:50:02.135Z,92.85
2023-05-19T02:51:02.164Z,92.54
2023-05-19T02:52:02.270Z,92.02
2023-05-19T02:53:02.147Z,91.61
2023-05-19T02:54:01.831Z,91.82
2023-05-19T02:55:02.802Z,92.33
2023-05-19T02:56:02.298Z,92.74
2023-05-19T02:57:02.692Z,93.16
2023-05-19T02:58:02.620Z,93.05
2023-05-19T02:59:02.565Z,92.54
2023-05-19T03:00:02.384Z,91.50
2023-05-19T03:01:02.409Z,91.46
2023-05-19T03:02:02.402Z,90.95
2023-05-19T03:03:02.292Z,90.22
2023-05-19T03:04:02.476Z,89.50
2023-05-19T03:05:02.461Z,89.19
2023-05-19T03:06:02.286Z,88.78
2023-05-19T03:07:02.829Z,90.43
2023-05-19T03:08:02.786Z,89.81
2023-05-19T03:09:02.542Z,88.64
2023-05-19T03:10:03.465Z,88.95
2023-05-19T03:11:03.083Z,88.98
2023-05-19T03:12:02.944Z,87.71
2023-05-19T03:13:02.833Z,87.29
2023-05-19T03:14:03.217Z,87.54
2023-05-19T03:15:02.797Z,88.68
2023-05-19T03:16:02.742Z,88.26
2023-05-19T03:17:02.682Z,87.65
2023-05-19T03:18:02.587Z,87.34
2023-05-19T03:19:02.865Z,87.34
2023-05-19T03:20:02.534Z,88.06
2023-05-19T03:21:02.471Z,87.74
2023-05-19T03:22:02.279Z,87.34
2023-05-19T03:23:02.490Z,86.82
2023-05-19T03:24:02.457Z,86.71
2023-05-19T03:25:03.114Z,86.51
2023-05-19T03:26:03.109Z,86.10
2023-05-19T03:27:02.877Z,85.78
2023-05-19T03:28:03.212Z,86.30
2023-05-19T03:29:03.029Z,86.30
2023-05-19T03:30:05.702Z,87.13
2023-05-19T03:31:03.121Z,86.92
2023-05-19T03:32:03.016Z,87.17
2023-05-19T03:33:03.368Z,88.20
2023-05-19T03:34:03.117Z,87.99
2023-05-19T03:35:02.716Z,87.79
2023-05-19T03:36:02.684Z,87.48
2023-05-19T03:37:03.025Z,88.10
2023-05-19T03:38:02.767Z,88.92
2023-05-19T03:39:02.334Z,88.51
2023-05-19T03:40:03.328Z,87.99
2023-05-19T03:41:02.892Z,87.58
2023-05-19T03:42:02.768Z,87.79
2023-05-19T03:43:03.400Z,87.58
2023-05-19T03:44:03.127Z,87.07
2023-05-19T03:45:02.923Z,89.17
2023-05-19T03:46:02.437Z,89.07
2023-05-19T03:47:02.500Z,89.69
2023-05-19T03:48:02.434Z,88.31
2023-05-19T03:49:02.442Z,87.37
2023-05-19T03:50:02.612Z,86.76
2023-05-19T03:51:03.138Z,86.44
2023-05-19T03:52:02.820Z,87.07
2023-05-19T03:53:03.180Z,86.86
2023-05-19T03:54:02.789Z,86.55
2023-05-19T03:55:03.422Z,86.34
2023-05-19T03:56:03.370Z,87.07
2023-05-19T03:57:03.397Z,86.76
2023-05-19T03:58:03.575Z,86.44
2023-05-19T03:59:02.940Z,86.96
2023-05-19T04:00:02.259Z,86.44
2023-05-19T04:01:02.439Z,86.55
2023-05-19T04:02:02.850Z,86.44
2023-05-19T04:03:02.581Z,85.93
2023-05-19T04:04:02.386Z,86.55
2023-05-19T04:05:02.655Z,87.00
2023-05-19T04:06:02.647Z,88.14
2023-05-19T04:07:03.045Z,89.89
2023-05-19T04:08:02.833Z,90.87
2023-05-19T04:09:03.027Z,90.66
2023-05-19T04:10:03.405Z,90.66
2023-05-19T04:11:03.116Z,89.73
2023-05-19T04:12:03.151Z,89.28
2023-05-19T04:13:03.060Z,88.96
2023-05-19T04:14:02.790Z,89.38
2023-05-19T04:15:02.862Z,89.28
2023-05-19T04:16:03.419Z,88.86
2023-05-19T04:17:03.082Z,88.04
2023-05-19T04:18:03.125Z,88.24
2023-05-19T04:19:03.573Z,88.24
2023-05-19T04:20:02.289Z,88.14
2023-05-19T04:21:02.637Z,87.89
2023-05-19T04:22:02.603Z,88.14
2023-05-19T04:23:02.746Z,87.89
2023-05-19T04:24:02.755Z,87.58
2023-05-19T04:25:02.845Z,88.10
2023-05-19T04:26:02.824Z,89.17
2023-05-19T04:27:02.843Z,89.65
2023-05-19T04:28:03.442Z,90.10
2023-05-19T04:29:03.388Z,90.93
2023-05-19T04:30:02.271Z,90.83
2023-05-19T04:31:02.352Z,90.83
2023-05-19T04:32:02.391Z,90.31
2023-05-19T04:33:02.263Z,90.31
2023-05-19T04:34:02.774Z,90.06
2023-05-19T04:35:02.925Z,89.95
2023-05-19T04:36:02.531Z,89.54
2023-05-19T04:37:02.784Z,90.47
2023-05-19T04:38:02.909Z,90.93
2023-05-19T04:39:02.862Z,91.86
2023-05-19T04:40:02.028Z,92.68
2023-05-19T04:41:02.111Z,92.38
2023-05-19T04:42:01.856Z,92.07
2023-05-19T04:43:01.905Z,93.24
2023-05-19T04:44:01.995Z,93.97
2023-05-19T04:45:01.957Z,94.69
2023-05-19T04:46:02.492Z,95.42
2023-05-19T04:47:02.343Z,95.31
2023-05-19T04:48:02.440Z,95.52
2023-05-19T04:49:02.220Z,95.94
2023-05-19T04:50:02.933Z,95.52
2023-05-19T04:51:02.699Z,94.85
2023-05-19T04:52:02.620Z,94.44
2023-05-19T04:53:02.664Z,93.82
2023-05-19T04:54:02.432Z,93.20
2023-05-19T04:55:02.183Z,92.64
2023-05-19T04:56:02.324Z,92.33
2023-05-19T04:57:02.644Z,91.61
2023-05-19T04:58:02.376Z,91.92
2023-05-19T04:59:02.524Z,91.40
2023-05-19T05:00:02.490Z,91.26
2023-05-19T05:01:02.842Z,91.05
2023-05-19T05:02:02.611Z,90.64
2023-05-19T05:03:02.661Z,90.33
2023-05-19T05:04:02.994Z,90.64
2023-05-19T05:05:02.307Z,91.26
2023-05-19T05:06:01.798Z,91.05
2023-05-19T05:07:01.809Z,90.70
2023-05-19T05:08:01.810Z,90.59
2023-05-19T05:09:01.828Z,90.59
2023-05-19T05:10:02.089Z,91.42
2023-05-19T05:11:01.814Z,92.14
2023-05-19T05:12:01.893Z,93.49
2023-05-19T05:13:01.969Z,94.00
2023-05-19T05:14:02.046Z,94.31
2023-05-19T05:15:02.126Z,94.62
2023-05-19T05:16:02.273Z,95.24
2023-05-19T05:17:02.361Z,95.03
2023-05-19T05:18:02.177Z,94.89
2023-05-19T05:19:02.181Z,94.78
2023-05-19T05:20:02.247Z,94.57
2023-05-19T05:21:02.294Z,94.02
2023-05-19T05:22:02.294Z,94.02
2023-05-19T05:23:02.292Z,93.66
2023-05-19T05:24:02.293Z,93.66
2023-05-19T05:25:02.713Z,94.49
2023-05-19T05:26:02.389Z,94.28
2023-05-19T05:27:02.362Z,93.83
2023-05-19T05:28:02.681Z,93.52
2023-05-19T05:29:02.418Z,93.31
2023-05-19T05:30:02.559Z,92.86
2023-05-19T05:31:02.364Z,92.86
2023-05-19T05:32:02.269Z,92.71
2023-05-19T05:33:02.706Z,92.20
2023-05-19T05:34:02.827Z,91.78
2023-05-19T05:35:02.647Z,91.44
2023-05-19T05:36:02.697Z,91.64
2023-05-19T05:37:02.372Z,90.67
2023-05-19T05:38:03.052Z,90.78
2023-05-19T05:39:03.008Z,90.63
2023-05-19T05:40:02.751Z,90.01
2023-05-19T05:41:02.779Z,90.42
2023-05-19T05:42:02.594Z,90.08
2023-05-19T05:43:02.552Z,89.97
2023-05-19T05:44:03.119Z,89.72
2023-05-19T05:45:01.998Z,89.42
2023-05-19T05:46:02.061Z,88.86
2023-05-19T05:47:02.370Z,88.45
2023-05-19T05:48:01.904Z,88.62
2023-05-19T05:49:01.822Z,88.72
2023-05-19T05:50:02.527Z,88.31
2023-05-19T05:51:02.559Z,86.93
2023-05-19T05:52:06.360Z,87.24
2023-05-19T05:53:02.942Z,87.30
2023-05-19T05:54:02.318Z,86.38
2023-05-19T05:55:02.043Z,87.26
2023-05-19T05:56:02.078Z,87.47
2023-05-19T05:57:02.198Z,86.71
2023-05-19T05:58:02.424Z,85.58
2023-05-19T05:59:02.195Z,85.85
2023-05-19T06:00:02.388Z,85.81
2023-05-19T06:01:01.937Z,85.61
2023-05-19T06:02:02.083Z,85.36
2023-05-19T06:03:02.490Z,85.36
2023-05-19T06:04:02.429Z,84.00
2023-05-19T06:05:03.623Z,84.41
2023-05-19T06:06:03.355Z,84.61
2023-05-19T06:07:03.760Z,84.47
2023-05-19T06:08:03.484Z,83.95
2023-05-19T06:09:03.606Z,83.40
2023-05-19T06:10:02.671Z,83.20
2023-05-19T06:11:02.497Z,82.45
2023-05-19T06:12:02.999Z,82.35
2023-05-19T06:13:02.434Z,82.61
2023-05-19T06:14:02.587Z,82.00
2023-05-19T06:15:02.567Z,81.45
2023-05-19T06:16:02.557Z,81.15
2023-05-19T06:17:03.004Z,80.33
2023-05-19T06:18:03.170Z,80.33
2023-05-19T06:19:03.055Z,80.60
2023-05-19T06:20:03.241Z,80.50
2023-05-19T06:21:02.831Z,80.16
2023-05-19T06:22:02.907Z,79.54
2023-05-19T06:23:03.109Z,80.11
2023-05-19T06:24:03.375Z,78.96
2023-05-19T06:25:03.518Z,78.05
2023-05-19T06:26:03.314Z,77.53
2023-05-19T06:27:03.421Z,77.60
2023-05-19T06:28:03.424Z,77.29
2023-05-19T06:29:03.626Z,76.95
2023-05-19T06:30:02.788Z,75.87
2023-05-19T06:31:02.964Z,75.67
2023-05-19T06:32:02.765Z,76.79
2023-05-19T06:33:02.976Z,77.26
2023-05-19T06:34:02.837Z,76.65
2023-05-19T06:35:02.935Z,74.99
2023-05-19T06:36:03.068Z,75.29
2023-05-19T06:37:03.062Z,74.55
2023-05-19T06:38:02.956Z,74.34
2023-05-19T06:39:02.940Z,76.48
2023-05-19T06:40:03.005Z,74.85
2023-05-19T06:41:02.659Z,74.82
2023-05-19T06:42:02.952Z,74.62
2023-05-19T06:43:02.932Z,73.26
2023-05-19T06:44:03.006Z,72.75
2023-05-19T06:45:02.568Z,72.69
2023-05-19T06:46:02.243Z,73.70
2023-05-19T06:47:02.413Z,73.66
2023-05-19T06:48:02.760Z,73.26
2023-05-19T06:49:02.429Z,72.92
2023-05-19T06:50:03.569Z,71.37
2023-05-19T06:51:03.105Z,71.16
2023-05-19T06:52:03.299Z,69.34
2023-05-19T06:53:03.386Z,69.54
2023-05-19T06:54:03.234Z,70.65
2023-05-19T06:55:02.621Z,72.28
2023-05-19T06:56:02.683Z,71.97
2023-05-19T06:57:02.995Z,71.03
2023-05-19T06:58:02.669Z,70.72
2023-05-19T06:59:02.781Z,70.52
2023-05-19T07:00:02.801Z,67.38
2023-05-19T07:01:03.048Z,69.10
2023-05-19T07:02:03.427Z,69.20
2023-05-19T07:03:03.048Z,69.57
2023-05-19T07:04:03.281Z,67.85
2023-05-19T07:05:03.026Z,67.62
2023-05-19T07:06:03.756Z,67.29
2023-05-19T07:07:02.958Z,67.59
2023-05-19T07:08:02.482Z,67.15
2023-05-19T07:09:02.611Z,66.14
2023-05-19T07:10:02.610Z,66.04
2023-05-19T07:11:02.489Z,67.22
2023-05-19T07:12:02.404Z,64.29
2023-05-19T07:13:02.448Z,66.21
2023-05-19T07:14:02.516Z,66.69
2023-05-19T07:15:02.320Z,65.95
2023-05-19T07:16:02.435Z,66.55
2023-05-19T07:17:02.692Z,65.64
2023-05-19T07:18:02.384Z,62.79
2023-05-19T07:19:02.340Z,63.29
2023-05-19T07:20:02.660Z,64.30
2023-05-19T07:21:02.751Z,63.09
2023-05-19T07:22:02.992Z,63.70
2023-05-19T07:23:02.729Z,62.05
2023-05-19T07:24:02.914Z,62.76
2023-05-19T07:25:01.931Z,62.32
2023-05-19T07:26:02.624Z,61.92
2023-05-19T07:27:02.229Z,61.92
2023-05-19T07:28:02.471Z,60.91
2023-05-19T07:29:02.225Z,60.61
2023-05-19T07:30:02.512Z,60.61
2023-05-19T07:31:02.737Z,61.41
2023-05-19T07:32:03.044Z,62.22
2023-05-19T07:33:02.591Z,61.61
2023-05-19T07:34:02.725Z,61.18
2023-05-19T07:35:02.435Z,61.89
2023-05-19T07:36:02.100Z,61.16
2023-05-19T07:37:02.066Z,60.96
2023-05-19T07:38:01.936Z,60.05
2023-05-19T07:39:02.576Z,61.16
2023-05-19T07:40:02.357Z,61.23
2023-05-19T07:41:02.683Z,61.33
2023-05-19T07:42:02.335Z,60.72
2023-05-19T07:43:02.441Z,60.09
2023-05-19T07:44:02.784Z,58.91
2023-05-19T07:45:02.094Z,60.12
2023-05-19T07:46:02.380Z,60.49
2023-05-19T07:47:02.161Z,59.66
2023-05-19T07:48:01.750Z,59.56
2023-05-19T07:49:01.728Z,59.06
2023-05-19T07:50:02.247Z,59.06
2023-05-19T07:51:02.372Z,58.73
2023-05-19T07:52:02.293Z,59.74
2023-05-19T07:53:01.898Z,56.71
2023-05-19T07:54:02.386Z,57.52
2023-05-19T07:55:02.993Z,57.22
2023-05-19T07:56:02.936Z,57.12
2023-05-19T07:57:02.675Z,58.00
2023-05-19T07:58:02.879Z,56.99
2023-05-19T07:59:02.932Z,57.39
2023-05-19T08:00:02.722Z,56.06
2023-05-19T08:01:02.921Z,56.06
2023-05-19T08:02:02.777Z,55.26
2023-05-19T08:03:03.157Z,56.06
2023-05-19T08:04:03.123Z,58.57
2023-05-19T08:05:02.174Z,57.54
2023-05-19T08:06:02.467Z,55.13
2023-05-19T08:07:02.534Z,56.61
2023-05-19T08:08:02.464Z,56.01
2023-05-19T08:09:02.395Z,55.00
2023-05-19T08:10:03.053Z,54.58
2023-05-19T08:11:03.010Z,55.08
2023-05-19T08:12:02.693Z,53.97
2023-05-19T08:13:02.659Z,55.08
2023-05-19T08:14:02.757Z,54.77
2023-05-19T08:15:02.206Z,53.77
2023-05-19T08:16:02.676Z,54.25
2023-05-19T08:17:02.579Z,56.05
2023-05-19T08:18:02.541Z,55.65
2023-05-19T08:19:02.203Z,55.73
2023-05-19T08:20:01.857Z,55.32
2023-05-19T08:21:01.715Z,54.30
2023-05-19T08:22:01.834Z,53.00
2023-05-19T08:23:01.892Z,54.90
2023-05-19T08:24:02.199Z,54.70
2023-05-19T08:25:01.878Z,53.97
2023-05-19T08:26:02.230Z,53.07
2023-05-19T08:27:02.307Z,53.27
2023-05-19T08:28:02.101Z,53.44
2023-05-19T08:29:01.929Z,52.74
2023-05-19T08:30:02.785Z,55.02
2023-05-19T08:31:02.719Z,51.12
2023-05-19T08:32:02.514Z,51.42
2023-05-19T08:33:02.776Z,52.19
2023-05-19T08:34:03.096Z,50.49
2023-05-19T08:35:02.025Z,50.89
2023-05-19T08:36:01.867Z,51.89
2023-05-19T08:37:02.123Z,49.49
2023-05-19T08:38:01.726Z,50.72
2023-05-19T08:39:02.066Z,50.52
2023-05-19T08:40:02.493Z,50.49
2023-05-19T08:41:02.775Z,51.20
2023-05-19T08:42:02.351Z,51.37
2023-05-19T08:43:02.726Z,51.07
2023-05-19T08:44:02.729Z,51.15
2023-05-19T08:45:01.901Z,52.25
2023-05-19T08:46:01.718Z,50.35
2023-05-19T08:47:02.403Z,49.42
2023-05-19T08:48:02.341Z,49.32
2023-05-19T08:49:01.975Z,48.85
2023-05-19T08:50:02.108Z,48.65
2023-05-19T08:51:01.967Z,48.35
2023-05-19T08:52:02.068Z,50.04
2023-05-19T08:53:02.354Z,49.05
2023-05-19T08:54:02.463Z,48.75
2023-05-19T08:55:02.252Z,49.44
2023-05-19T08:56:01.998Z,47.95
2023-05-19T08:57:02.155Z,47.85
2023-05-19T08:58:01.911Z,46.75
2023-05-19T08:59:02.148Z,48.65
2023-05-19T09:00:02.307Z,47.92
2023-05-19T09:01:01.974Z,48.52
2023-05-19T09:02:01.896Z,48.22
2023-05-19T09:04:02.386Z,48.20
2023-05-19T09:05:03.246Z,47.58
2023-05-19T09:06:03.372Z,47.28
2023-05-19T09:07:03.635Z,46.78
2023-05-19T09:08:03.423Z,46.76
2023-05-19T09:09:03.548Z,45.96
2023-05-19T09:10:02.700Z,45.76
2023-05-19T09:11:02.230Z,44.69
2023-05-19T09:12:02.406Z,45.29
2023-05-19T09:13:02.586Z,46.68
2023-05-19T09:14:02.605Z,46.78
2023-05-19T09:15:02.720Z,46.48
2023-05-19T09:16:02.424Z,45.09
2023-05-19T09:17:02.728Z,45.78
2023-05-19T09:18:02.931Z,45.78
2023-05-19T09:19:02.994Z,46.19
2023-05-19T09:20:02.860Z,45.98
2023-05-19T09:21:03.126Z,47.88
2023-05-19T09:22:02.657Z,46.58
2023-05-19T09:23:02.900Z,46.26
2023-05-19T09:24:02.728Z,45.47
2023-05-19T09:25:02.872Z,45.66
2023-05-19T09:26:02.713Z,44.37
2023-05-19T09:27:03.036Z,43.47
2023-05-19T09:28:02.529Z,44.87
2023-05-19T09:29:02.731Z,44.87
2023-05-19T09:30:03.439Z,46.26
2023-05-19T09:31:03.145Z,44.76
2023-05-19T09:32:03.624Z,45.17
2023-05-19T09:33:03.649Z,45.84
2023-05-19T09:34:03.474Z,43.35
2023-05-19T09:35:03.084Z,43.43
2023-05-19T09:36:02.920Z,42.63
2023-05-19T09:37:02.977Z,43.93
2023-05-19T09:38:03.259Z,42.23
2023-05-19T09:39:03.040Z,42.53
2023-05-19T09:40:02.917Z,43.52
2023-05-19T09:41:02.951Z,43.33
2023-05-19T09:42:03.220Z,44.62
2023-05-19T09:43:03.452Z,44.31
2023-05-19T09:44:03.165Z,42.31
2023-05-19T09:45:03.465Z,43.51
2023-05-19T09:46:03.493Z,43.11
2023-05-19T09:47:03.622Z,42.39
2023-05-19T09:48:03.470Z,41.99
2023-05-19T09:49:03.152Z,41.58
2023-05-19T09:50:03.692Z,40.98
2023-05-19T09:51:03.565Z,41.47
2023-05-19T09:52:03.242Z,41.20
2023-05-19T09:53:03.385Z,41.79
2023-05-19T09:54:03.543Z,42.86
2023-05-19T09:55:02.719Z,43.37
2023-05-19T09:56:02.612Z,42.27
2023-05-19T09:57:02.499Z,43.07
2023-05-19T09:58:02.770Z,42.65
2023-05-19T09:59:02.975Z,42.45
2023-05-19T10:00:03.074Z,41.36
2023-05-19T10:01:02.662Z,42.67
2023-05-19T10:02:03.117Z,43.84
2023-05-19T10:03:03.261Z,42.85
2023-05-19T10:04:03.896Z,43.82
2023-05-19T10:05:02.566Z,43.60
2023-05-19T10:06:02.482Z,43.30
2023-05-19T10:07:02.047Z,42.19
2023-05-19T10:08:02.259Z,41.60
2023-05-19T10:09:02.439Z,41.99
2023-05-19T10:10:02.707Z,40.11
2023-05-19T10:11:02.740Z,41.42
2023-05-19T10:12:02.425Z,41.24
2023-05-19T10:13:02.699Z,40.44
2023-05-19T10:14:02.232Z,39.75
2023-05-19T10:15:02.788Z,41.93
2023-05-19T10:16:03.078Z,42.61
2023-05-19T10:17:02.633Z,39.53
2023-05-19T10:18:02.703Z,39.92
2023-05-19T10:19:02.789Z,41.02
2023-05-19T10:20:02.675Z,39.92
2023-05-19T10:21:02.970Z,41.52
2023-05-19T10:22:03.239Z,39.53
2023-05-19T10:23:03.068Z,41.22
2023-05-19T10:24:03.286Z,39.92
2023-05-19T10:25:02.767Z,41.12
2023-05-19T10:26:02.748Z,39.23
2023-05-19T10:27:02.651Z,39.31
2023-05-19T10:28:02.421Z,39.71
2023-05-19T10:29:02.847Z,39.31
2023-05-19T10:30:03.394Z,40.58
2023-05-19T10:31:03.186Z,40.48
2023-05-19T10:32:02.801Z,39.49
2023-05-19T10:33:03.202Z,41.87
2023-05-19T10:34:03.368Z,39.87
2023-05-19T10:35:03.389Z,40.76
2023-05-19T10:36:03.300Z,38.36
2023-05-19T10:37:03.394Z,40.25
2023-05-19T10:38:03.289Z,38.26
2023-05-19T10:39:03.196Z,38.07
2023-05-19T10:40:03.481Z,38.44
2023-05-19T10:41:03.279Z,40.12
2023-05-19T10:42:03.251Z,39.61
2023-05-19T10:43:03.362Z,40.11
2023-05-19T10:44:02.940Z,39.51
2023-05-19T10:45:02.450Z,40.11
2023-05-19T10:46:02.191Z,39.81
2023-05-19T10:47:02.752Z,40.60
2023-05-19T10:48:02.463Z,39.31
2023-05-19T10:49:02.203Z,38.72
2023-05-19T10:50:02.687Z,38.03
2023-05-19T10:51:02.791Z,37.93
2023-05-19T10:52:02.354Z,37.53
2023-05-19T10:53:02.529Z,39.31
2023-05-19T10:54:02.426Z,38.21
2023-05-19T10:55:03.234Z,37.51
2023-05-19T10:56:03.048Z,37.71
2023-05-19T10:57:03.378Z,36.82
2023-05-19T10:58:03.362Z,37.02
2023-05-19T10:59:03.198Z,38.11
2023-05-19T11:00:02.796Z,37.32
2023-05-19T11:01:02.885Z,37.34
2023-05-19T11:02:02.903Z,37.83
2023-05-19T11:03:02.294Z,36.64
2023-05-19T11:04:02.679Z,36.36
2023-05-19T11:05:02.679Z,37.95
2023-05-19T11:06:02.976Z,39.34
2023-05-19T11:07:02.741Z,37.75
2023-05-19T11:08:03.030Z,37.96
2023-05-19T11:09:02.940Z,37.05
2023-05-19T11:10:01.938Z,39.51
2023-05-19T11:11:02.129Z,39.22
2023-05-19T11:12:02.165Z,36.56
2023-05-19T11:13:02.287Z,36.18
2023-05-19T11:14:01.964Z,37.29
2023-05-19T11:15:02.645Z,37.81
2023-05-19T11:16:02.851Z,38.42
2023-05-19T11:17:03.075Z,39.31
2023-05-19T11:18:03.196Z,38.42
2023-05-19T11:19:02.858Z,40.48
2023-05-19T11:20:02.323Z,38.40
2023-05-19T11:21:02.487Z,37.60
2023-05-19T11:22:02.744Z,39.17
2023-05-19T11:23:02.566Z,38.68
2023-05-19T11:24:02.837Z,39.06
2023-05-19T11:25:01.768Z,38.24
2023-05-19T11:26:02.003Z,39.34
2023-05-19T11:27:01.823Z,39.23
2023-05-19T11:28:02.340Z,39.23
2023-05-19T11:29:02.067Z,39.02
2023-05-19T11:30:02.337Z,39.81
2023-05-19T11:31:02.602Z,40.39
2023-05-19T11:32:02.708Z,38.51
2023-05-19T11:33:02.192Z,37.22
2023-05-19T11:34:02.631Z,36.62
2023-05-19T11:35:02.365Z,38.31
2023-05-19T11:36:02.645Z,37.81
2023-05-19T11:37:02.385Z,36.74
2023-05-19T11:38:02.792Z,37.24
2023-05-19T11:39:02.464Z,37.71
2023-05-19T11:40:02.714Z,37.91
2023-05-19T11:41:02.971Z,36.62
2023-05-19T11:42:03.172Z,37.62
2023-05-19T11:43:03.127Z,36.72
2023-05-19T11:44:03.071Z,36.21
2023-05-19T11:45:03.411Z,34.73
2023-05-19T11:46:03.247Z,35.61
2023-05-19T11:47:03.305Z,36.31
2023-05-19T11:48:03.559Z,34.53
2023-05-19T11:49:02.982Z,36.92
2023-05-19T11:50:02.512Z,34.94
2023-05-19T11:51:02.786Z,33.95
2023-05-19T11:52:02.593Z,36.24
2023-05-19T11:53:02.603Z,37.34
2023-05-19T11:54:02.286Z,37.53
2023-05-19T11:55:02.435Z,35.93
2023-05-19T11:56:02.594Z,36.33
2023-05-19T11:57:02.291Z,35.67
2023-05-19T11:58:04.606Z,39.45
2023-05-19T11:59:02.711Z,37.05
2023-05-19T12:00:03.101Z,36.46
2023-05-19T12:01:03.060Z,36.68
2023-05-19T12:02:03.370Z,37.59
2023-05-19T12:03:02.981Z,37.88
2023-05-19T12:04:03.133Z,38.46
2023-05-19T12:05:02.661Z,37.47
2023-05-19T12:06:02.861Z,38.26
2023-05-19T12:07:02.560Z,37.05
2023-05-19T12:08:02.806Z,38.34
2023-05-19T12:09:02.689Z,36.07
2023-05-19T12:10:03.158Z,36.26
2023-05-19T12:11:03.279Z,40.42
2023-05-19T12:12:03.248Z,39.02
2023-05-19T12:13:03.261Z,37.53
2023-05-19T12:14:03.236Z,36.72
2023-05-19T12:15:03.002Z,35.06
2023-05-19T12:16:02.943Z,34.40
2023-05-19T12:17:03.318Z,36.10
2023-05-19T12:18:03.144Z,37.19
2023-05-19T12:19:03.039Z,34.81
2023-05-19T12:20:02.654Z,34.91
2023-05-19T12:21:02.852Z,37.60
2023-05-19T12:22:04.056Z,35.42
2023-05-19T12:23:02.681Z,36.79
2023-05-19T12:24:02.550Z,37.39
2023-05-19T12:25:03.264Z,35.19
2023-05-19T12:26:03.507Z,35.19
2023-05-19T12:27:03.091Z,34.10
2023-05-19T12:28:03.916Z,34.80
2023-05-19T12:29:03.216Z,33.61
2023-05-19T12:30:02.519Z,32.51
2023-05-19T12:31:02.612Z,33.72
2023-05-19T12:32:02.630Z,35.50
2023-05-19T12:33:02.811Z,33.90
2023-05-19T12:34:02.304Z,35.78
2023-05-19T12:35:02.556Z,35.69
2023-05-19T12:36:02.822Z,35.39
2023-05-19T12:37:02.760Z,35.29
2023-05-19T12:38:02.596Z,34.30
2023-05-19T12:39:02.218Z,34.69
2023-05-19T12:40:03.181Z,35.39
2023-05-19T12:41:03.367Z,36.08
2023-05-19T12:42:03.299Z,37.96
2023-05-19T12:43:03.465Z,34.59
2023-05-19T12:44:02.995Z,36.68
2023-05-19T12:45:03.314Z,35.27
2023-05-19T12:46:02.798Z,34.78
2023-05-19T12:47:02.999Z,36.16
2023-05-19T12:48:03.102Z,36.76
2023-05-19T12:49:02.776Z,36.76
2023-05-19T12:50:03.360Z,36.66
2023-05-19T12:51:03.106Z,33.89
2023-05-19T12:52:06.122Z,34.58
2023-05-19T12:53:03.335Z,38.54